createdAt,value
2022-12-06T00:01:32.527Z,14.23
2022-12-06T00:04:23.222Z,13.50
2022-12-06T00:07:14.288Z,13.87
2022-12-06T00:10:04.195Z,12.80
2022-12-06T00:12:54.813Z,13.00
2022-12-06T00:15:44.900Z,13.43
2022-12-06T00:18:42.381Z,12.83
2022-12-06T00:21:33.490Z,12.20
2022-12-06T00:24:26.878Z,11.87
2022-12-06T00:27:17.119Z,12.90
2022-12-06T00:30:07.631Z,12.47
2022-12-06T00:32:58.173Z,11.30
2022-12-06T00:35:57.280Z,14.10
2022-12-06T00:38:48.898Z,12.17
2022-12-06T00:41:39.192Z,11.37
2022-12-06T06:11:25.109Z,5.40
2022-12-06T06:14:15.003Z,4.73
2022-12-06T06:17:03.955Z,4.37
2022-12-06T06:19:53.168Z,4.50
2022-12-06T06:22:43.885Z,4.60
2022-12-06T06:25:32.911Z,4.50
2022-12-06T06:28:24.548Z,4.37
2022-12-06T06:31:13.362Z,5.00
2022-12-06T06:34:02.658Z,4.60
2022-12-06T06:36:51.211Z,4.57
2022-12-06T06:39:40.360Z,5.00
2022-12-06T06:42:29.804Z,5.10
2022-12-06T06:45:26.756Z,5.03
2022-12-06T06:48:18.127Z,5.53
2022-12-06T06:51:09.462Z,4.73
2022-12-06T06:53:58.851Z,5.60
2022-12-06T06:56:48.761Z,5.63
2022-12-06T06:59:37.350Z,4.80
2022-12-06T07:02:28.063Z,5.10
2022-12-06T07:05:17.536Z,5.60
2022-12-06T07:08:07.415Z,4.87
2022-12-06T07:10:56.943Z,5.77
2022-12-06T07:13:52.402Z,5.33
2022-12-06T07:16:41.820Z,4.67
2022-12-06T07:19:32.481Z,4.80
2022-12-06T07:22:22.076Z,5.67
2022-12-06T07:25:11.620Z,4.57
2022-12-06T07:28:00.812Z,4.83
2022-12-06T07:30:49.927Z,5.33
2022-12-06T07:33:40.074Z,4.73
2022-12-06T07:36:32.830Z,4.90
2022-12-06T07:39:21.913Z,5.07
2022-12-06T07:42:29.234Z,5.03
2022-12-06T07:45:18.301Z,5.30
2022-12-06T07:48:08.153Z,5.10
2022-12-06T07:50:57.361Z,4.33
2022-12-06T07:53:48.143Z,4.67
2022-12-06T07:56:37.023Z,4.27
2022-12-06T07:59:26.787Z,4.17
2022-12-06T08:02:21.274Z,4.80
2022-12-06T08:05:11.519Z,4.87
2022-12-06T08:08:01.000Z,5.50
2022-12-06T08:10:51.430Z,5.47
2022-12-06T08:13:40.930Z,5.43
2022-12-06T08:16:30.481Z,5.77
2022-12-06T08:19:19.467Z,3.67
2022-12-06T08:22:08.788Z,4.73
2022-12-06T08:24:57.694Z,5.20
2022-12-06T08:27:48.954Z,4.80
2022-12-06T08:30:41.025Z,4.87
2022-12-06T08:33:30.136Z,4.50
2022-12-06T08:36:19.788Z,4.60
2022-12-06T08:39:09.872Z,4.43
2022-12-06T08:42:03.562Z,4.60
2022-12-06T08:44:54.581Z,4.87
2022-12-06T08:47:43.615Z,4.07
2022-12-06T08:50:32.869Z,6.50
2022-12-06T08:53:21.779Z,4.37
2022-12-06T08:56:11.404Z,4.50
2022-12-06T08:59:01.039Z,4.80
2022-12-06T09:01:52.246Z,4.70
2022-12-06T09:04:41.676Z,5.20
2022-12-06T09:07:30.929Z,4.67
2022-12-06T09:10:20.836Z,5.10
2022-12-06T09:13:09.900Z,4.63
2022-12-06T09:15:59.201Z,5.13
2022-12-06T09:18:51.659Z,5.20
2022-12-06T09:21:43.154Z,4.77
2022-12-06T09:24:32.736Z,4.57
2022-12-06T09:27:22.149Z,4.60
2022-12-06T09:30:12.842Z,4.63
2022-12-06T09:33:01.743Z,5.53
2022-12-06T09:35:53.551Z,5.10
2022-12-06T09:38:45.486Z,5.13
2022-12-06T09:41:52.723Z,4.60
2022-12-06T09:44:58.368Z,5.97
2022-12-06T09:48:14.968Z,5.83
2022-12-06T09:51:18.073Z,6.27
2022-12-06T09:54:19.765Z,6.28
2022-12-06T09:57:14.234Z,6.87
2022-12-06T10:00:11.324Z,7.07
2022-12-06T10:03:36.626Z,6.13
2022-12-06T10:06:33.051Z,7.07
2022-12-06T10:09:36.339Z,6.00
2022-12-06T10:12:38.164Z,7.18
2022-12-06T10:15:41.252Z,6.30
2022-12-06T10:18:38.036Z,6.88
2022-12-06T10:21:39.441Z,6.33
2022-12-06T10:24:42.759Z,6.68
2022-12-06T10:27:38.468Z,7.45
2022-12-06T10:30:28.160Z,7.20
2022-12-06T10:33:23.817Z,7.07
2022-12-06T10:36:17.440Z,7.43
2022-12-06T10:39:17.062Z,8.32
2022-12-06T10:42:12.502Z,7.10
2022-12-06T10:45:25.100Z,7.78
2022-12-06T10:48:17.437Z,7.53
2022-12-06T10:51:09.516Z,8.07
2022-12-06T10:54:00.533Z,6.80
2022-12-06T10:56:53.857Z,6.60
2022-12-06T10:59:51.936Z,7.30
2022-12-06T11:02:47.935Z,7.88
2022-12-06T11:05:39.800Z,6.90
2022-12-06T11:08:32.442Z,7.18
2022-12-06T11:11:26.275Z,6.68
2022-12-06T11:14:20.523Z,5.60
2022-12-06T11:17:15.312Z,5.80
2022-12-06T11:20:06.868Z,6.78
2022-12-06T11:23:06.173Z,5.95
2022-12-06T11:26:04.019Z,6.97
2022-12-06T11:29:00.636Z,6.63
2022-12-06T11:31:52.640Z,6.30
2022-12-06T11:34:48.231Z,7.20
2022-12-06T11:37:42.940Z,6.20
2022-12-06T11:40:37.041Z,5.82
2022-12-06T11:43:29.960Z,6.60
2022-12-06T11:46:19.271Z,21.20
2022-12-06T11:49:16.943Z,13.55
2022-12-06T11:52:10.468Z,9.25
2022-12-06T11:55:02.601Z,10.55
2022-12-06T11:57:55.281Z,10.25
2022-12-06T12:01:03.090Z,10.48
2022-12-06T12:03:52.399Z,8.32
2022-12-06T12:06:43.482Z,9.13
2022-12-06T12:09:36.563Z,10.05
2022-12-06T12:12:48.021Z,11.68
2022-12-06T12:15:38.922Z,10.68
2022-12-06T12:18:31.304Z,11.23
2022-12-06T12:21:31.388Z,12.52
2022-12-06T12:27:59.407Z,12.35
2022-12-06T12:30:54.900Z,14.40
2022-12-06T12:33:44.269Z,13.40
2022-12-06T12:36:33.271Z,15.05
2022-12-06T12:39:29.710Z,12.60
2022-12-06T12:42:31.960Z,14.85
2022-12-06T12:45:22.649Z,14.35
2022-12-06T12:48:24.289Z,14.00
2022-12-06T12:51:33.777Z,14.20
2022-12-06T12:54:26.822Z,13.10
2022-12-06T12:57:15.806Z,14.48
2022-12-06T13:00:07.426Z,12.90
2022-12-06T13:03:00.120Z,12.63
2022-12-06T13:05:51.873Z,14.95
2022-12-06T13:08:41.543Z,13.43
2022-12-06T13:11:31.538Z,15.32
2022-12-06T13:14:23.967Z,13.88
2022-12-06T13:17:18.351Z,14.05
2022-12-06T13:20:23.734Z,13.90
2022-12-06T13:23:15.673Z,13.27
2022-12-06T13:26:16.247Z,14.60
2022-12-06T13:29:18.001Z,14.07
2022-12-06T13:32:10.381Z,14.15
2022-12-06T13:35:03.762Z,13.80
2022-12-06T13:37:58.264Z,14.82
2022-12-06T13:40:51.737Z,15.38
2022-12-06T13:43:52.633Z,13.32
2022-12-06T13:46:41.766Z,13.30
2022-12-06T13:49:48.769Z,14.82
2022-12-06T13:53:05.428Z,14.90
2022-12-06T13:56:02.509Z,15.23
2022-12-06T13:58:55.159Z,15.23
2022-12-06T14:01:46.233Z,15.20
2022-12-06T14:04:38.069Z,15.00
2022-12-06T14:07:34.859Z,16.27
2022-12-06T14:10:25.280Z,15.87
2022-12-06T14:13:18.685Z,13.17
2022-12-06T14:16:09.918Z,14.47
2022-12-06T14:18:59.007Z,14.47
2022-12-06T14:21:55.776Z,14.40
2022-12-06T14:24:56.932Z,14.67
2022-12-06T14:27:49.603Z,14.93
2022-12-06T14:30:39.324Z,14.87
2022-12-06T14:33:28.562Z,16.00
2022-12-06T14:36:22.099Z,14.53
2022-12-06T14:39:19.529Z,14.27
2022-12-06T14:42:36.763Z,14.13
2022-12-06T14:45:27.317Z,13.63
2022-12-06T14:48:16.626Z,14.00
2022-12-06T14:51:05.017Z,16.02
2022-12-06T14:53:53.931Z,15.07
2022-12-06T14:56:46.290Z,15.13
2022-12-06T15:03:02.013Z,15.23
2022-12-06T15:05:57.469Z,15.77
2022-12-06T15:08:53.481Z,15.00
2022-12-06T15:12:02.322Z,16.80
2022-12-06T15:14:52.267Z,16.03
2022-12-06T15:17:42.493Z,16.57
2022-12-06T15:20:33.289Z,16.87
2022-12-06T15:23:36.113Z,16.60
2022-12-06T15:26:26.131Z,17.00
2022-12-06T15:29:16.545Z,17.17
2022-12-06T15:32:06.261Z,15.97
2022-12-06T15:34:57.369Z,16.97
2022-12-06T15:37:50.505Z,15.13
2022-12-06T15:40:43.513Z,16.33
2022-12-06T15:43:34.879Z,15.53
2022-12-06T15:46:26.020Z,17.07
2022-12-06T15:49:16.735Z,15.83
2022-12-06T15:52:05.862Z,16.00
2022-12-06T15:54:56.438Z,16.23
2022-12-06T15:57:45.539Z,18.13
2022-12-06T16:00:34.593Z,17.07
2022-12-06T16:03:24.675Z,15.87
2022-12-06T16:06:15.790Z,16.17
2022-12-06T16:09:05.219Z,16.63
2022-12-06T16:11:56.608Z,16.73
2022-12-06T16:14:45.691Z,15.17
2022-12-06T16:17:34.948Z,17.17
2022-12-06T16:20:32.999Z,15.80
2022-12-06T16:26:51.691Z,16.63
2022-12-06T16:29:42.731Z,17.27
2022-12-06T16:32:31.853Z,15.83
2022-12-06T16:35:21.663Z,15.80
2022-12-06T16:38:13.612Z,15.80
2022-12-06T16:41:08.758Z,17.60
2022-12-06T16:43:58.482Z,16.77
2022-12-06T16:46:50.125Z,16.70
2022-12-06T16:49:46.868Z,16.63
2022-12-06T16:52:37.988Z,17.73
2022-12-06T16:55:27.713Z,17.67
2022-12-06T16:58:18.516Z,18.67
2022-12-06T17:01:19.389Z,18.33
2022-12-06T17:04:11.326Z,17.57
2022-12-06T17:07:00.977Z,17.90
2022-12-06T17:09:50.313Z,17.03
2022-12-06T17:12:39.650Z,17.63
2022-12-06T17:15:28.814Z,18.90
2022-12-06T17:18:18.958Z,17.30
2022-12-06T17:21:13.160Z,17.97
2022-12-06T17:24:06.694Z,18.17
2022-12-06T17:26:56.296Z,18.63
2022-12-06T17:29:45.795Z,18.87
2022-12-06T17:32:35.412Z,18.90
2022-12-06T17:35:25.643Z,18.53
2022-12-06T17:38:16.611Z,19.13
2022-12-06T17:41:26.701Z,18.17
2022-12-06T17:44:15.230Z,17.63
2022-12-06T17:47:05.480Z,18.27
2022-12-06T17:49:56.576Z,19.07
2022-12-06T17:52:46.879Z,17.23
2022-12-06T17:55:38.055Z,17.20
2022-12-06T17:58:27.401Z,17.53
2022-12-06T18:01:16.968Z,18.60
2022-12-06T18:04:07.276Z,19.57
2022-12-06T18:06:56.634Z,18.57
2022-12-06T18:09:46.141Z,19.43
2022-12-06T18:12:37.029Z,18.03
2022-12-06T18:15:44.113Z,19.03
2022-12-06T18:18:33.501Z,18.33
2022-12-06T18:21:23.246Z,19.63
2022-12-06T18:24:21.389Z,19.60
2022-12-06T18:27:12.160Z,18.13
2022-12-06T18:30:03.975Z,17.87
2022-12-06T18:32:53.834Z,19.73
2022-12-06T18:35:43.547Z,18.93
2022-12-06T18:38:33.857Z,17.43
2022-12-06T18:41:26.242Z,18.07
2022-12-06T18:44:16.298Z,18.80
2022-12-06T18:47:07.158Z,18.57
2022-12-06T18:49:57.096Z,17.73
2022-12-06T18:52:46.478Z,19.53
2022-12-06T18:55:36.174Z,18.30
2022-12-06T18:58:26.510Z,17.67
2022-12-06T19:01:16.762Z,22.97
2022-12-06T19:04:07.878Z,19.30
2022-12-06T19:06:57.094Z,18.90
2022-12-06T19:09:46.437Z,20.20
2022-12-06T19:12:35.936Z,19.17
2022-12-06T19:15:25.745Z,18.70
2022-12-06T19:18:15.332Z,19.03
2022-12-06T19:21:06.565Z,19.07
2022-12-06T19:23:56.760Z,32.63
2022-12-06T19:26:46.851Z,22.63
2022-12-06T19:29:38.106Z,20.47
2022-12-06T19:32:28.070Z,19.13
2022-12-06T19:35:17.616Z,22.07
2022-12-06T19:38:08.973Z,19.07
2022-12-06T19:40:58.604Z,20.30
2022-12-06T19:44:06.282Z,19.10
2022-12-06T19:46:56.443Z,23.17
2022-12-06T19:49:46.573Z,20.83
2022-12-06T19:52:36.631Z,20.40
2022-12-06T19:55:27.287Z,19.37
2022-12-06T19:58:16.698Z,22.13
2022-12-06T20:01:09.339Z,21.07
2022-12-06T20:03:58.524Z,21.87
2022-12-06T20:06:48.036Z,19.87
2022-12-06T20:09:37.407Z,19.37
2022-12-06T20:12:28.341Z,19.23
2022-12-06T20:15:18.166Z,19.70
2022-12-06T20:18:09.666Z,20.03
2022-12-06T20:20:59.352Z,21.23
2022-12-06T20:23:48.607Z,20.63
2022-12-06T20:26:38.804Z,20.57
2022-12-06T20:29:30.807Z,22.23
2022-12-06T20:32:21.734Z,22.13
2022-12-06T20:35:11.118Z,19.60
2022-12-06T20:38:00.891Z,20.90
2022-12-06T20:40:50.077Z,19.90
2022-12-06T20:43:40.012Z,19.20
2022-12-06T20:46:32.811Z,19.70
2022-12-06T20:49:22.499Z,17.50
2022-12-06T20:52:13.338Z,20.13
2022-12-06T20:55:02.819Z,19.43
2022-12-06T20:57:52.216Z,18.80
2022-12-06T21:00:42.944Z,20.60
2022-12-06T21:03:33.888Z,19.97
2022-12-06T21:06:24.931Z,17.60
2022-12-06T21:09:14.693Z,18.07
2022-12-06T21:12:04.229Z,18.13
2022-12-06T21:14:54.667Z,19.13
2022-12-06T21:17:43.518Z,19.03
2022-12-06T21:20:39.635Z,19.37
2022-12-06T21:23:28.359Z,20.80
2022-12-06T21:26:17.982Z,18.87
2022-12-06T21:29:07.197Z,19.07
2022-12-06T21:31:56.524Z,18.57
2022-12-06T21:34:46.761Z,18.10
2022-12-06T21:37:38.583Z,18.00
2022-12-06T21:40:28.201Z,21.07
2022-12-06T21:43:17.719Z,19.03
2022-12-06T21:46:09.143Z,19.67
2022-12-06T21:49:00.122Z,18.67
2022-12-06T21:51:52.695Z,18.03
2022-12-06T21:54:46.046Z,18.27
2022-12-06T21:57:35.695Z,16.53
2022-12-06T22:00:26.166Z,16.87
2022-12-06T22:03:22.752Z,17.33
2022-12-06T22:06:14.171Z,15.43
2022-12-06T22:09:05.909Z,19.17
2022-12-06T22:11:56.926Z,18.87
2022-12-06T22:14:46.326Z,16.20
2022-12-06T22:17:35.925Z,16.67
2022-12-06T22:20:25.065Z,17.43
2022-12-06T22:23:17.544Z,16.10
2022-12-06T22:26:08.069Z,16.80
2022-12-06T22:28:59.764Z,17.37
2022-12-06T22:31:48.864Z,16.37
2022-12-06T22:34:39.210Z,16.63
2022-12-06T22:37:28.805Z,16.00
2022-12-06T22:40:18.619Z,15.70
2022-12-06T22:43:09.663Z,15.53
2022-12-06T22:46:05.770Z,15.53
2022-12-06T22:48:56.060Z,14.73
2022-12-06T22:51:45.902Z,15.93
2022-12-06T22:54:35.501Z,17.47
2022-12-06T22:57:25.040Z,15.80
2022-12-06T23:00:15.681Z,15.83
2022-12-06T23:03:06.655Z,16.57
2022-12-06T23:05:59.918Z,16.13
2022-12-06T23:08:49.877Z,15.53
2022-12-06T23:11:39.137Z,15.97
2022-12-06T23:14:28.872Z,15.97
2022-12-06T23:17:18.051Z,16.23
2022-12-06T23:20:11.346Z,15.70
2022-12-06T23:23:01.222Z,15.87
2022-12-06T23:25:51.286Z,15.07
2022-12-06T23:28:41.344Z,15.10
2022-12-06T23:31:32.570Z,14.77
2022-12-06T23:34:23.412Z,15.37
2022-12-06T23:37:14.195Z,16.53
2022-12-06T23:40:03.881Z,15.80
2022-12-06T23:42:53.582Z,16.13
2022-12-06T23:45:43.035Z,15.73
2022-12-06T23:48:32.278Z,16.10
2022-12-06T23:51:23.581Z,17.13
2022-12-06T23:54:15.910Z,16.03
2022-12-06T23:57:05.642Z,16.03
2022-12-06T23:59:55.156Z,16.73
